createdAt,value
2022-12-06T00:00:02.599Z,5.77
2022-12-06T00:02:30.344Z,4.67
2022-12-06T00:04:58.032Z,5.30
2022-12-06T00:07:27.138Z,5.00
2022-12-06T00:09:54.798Z,5.33
2022-12-06T00:12:22.476Z,5.50
2022-12-06T00:14:50.152Z,5.47
2022-12-06T00:17:17.864Z,5.20
2022-12-06T00:19:45.554Z,5.23
2022-12-06T00:22:13.251Z,5.17
2022-12-06T00:24:42.503Z,5.30
2022-12-06T00:27:10.157Z,5.37
2022-12-06T00:29:37.820Z,5.27
2022-12-06T00:32:05.977Z,4.83
2022-12-06T00:34:33.681Z,5.30
2022-12-06T00:37:01.378Z,5.70
2022-12-06T00:39:29.041Z,5.87
2022-12-06T00:41:58.079Z,5.20
2022-12-06T00:44:25.719Z,5.50
2022-12-06T00:46:53.435Z,5.77
2022-12-06T00:49:21.114Z,6.27
2022-12-06T00:51:48.758Z,5.97
2022-12-06T00:54:16.805Z,6.07
2022-12-06T00:56:44.448Z,5.80
2022-12-06T00:59:13.486Z,6.43
2022-12-06T01:01:42.268Z,5.97
2022-12-06T01:04:10.320Z,5.67
2022-12-06T01:06:38.615Z,6.10
2022-12-06T01:09:09.098Z,6.23
2022-12-06T01:11:37.134Z,6.40
2022-12-06T01:14:04.932Z,5.70
2022-12-06T01:16:34.999Z,6.23
2022-12-06T01:19:06.399Z,6.00
2022-12-06T01:21:34.117Z,6.00
2022-12-06T01:24:01.811Z,5.80
2022-12-06T01:26:31.126Z,5.63
2022-12-06T01:28:59.461Z,5.90
2022-12-06T01:31:30.855Z,5.93
2022-12-06T01:34:04.816Z,6.00
2022-12-06T01:36:32.652Z,5.77
2022-12-06T01:39:02.227Z,6.30
2022-12-06T01:41:30.050Z,6.40
2022-12-06T01:43:57.884Z,5.83
2022-12-06T01:46:32.946Z,5.63
2022-12-06T01:49:10.387Z,6.50
2022-12-06T01:51:38.494Z,6.40
2022-12-06T01:54:10.403Z,6.20
2022-12-06T01:56:38.815Z,5.97
2022-12-06T01:59:08.547Z,6.63
2022-12-06T02:01:36.876Z,5.93
2022-12-06T02:04:06.979Z,6.40
2022-12-06T02:06:35.031Z,6.40
2022-12-06T02:09:06.190Z,5.83
2022-12-06T02:11:35.590Z,5.77
2022-12-06T02:14:05.512Z,5.77
2022-12-06T02:17:06.472Z,5.77
2022-12-06T02:20:03.971Z,5.07
2022-12-06T02:23:08.138Z,5.20
2022-12-06T02:25:55.398Z,5.67
2022-12-06T02:28:53.137Z,5.73
2022-12-06T02:31:28.447Z,4.87
2022-12-06T02:34:01.469Z,4.80
2022-12-06T02:36:38.345Z,4.83
2022-12-06T02:39:10.672Z,4.90
2022-12-06T02:41:42.378Z,4.23
2022-12-06T02:44:27.271Z,4.70
2022-12-06T02:46:58.530Z,4.40
2022-12-06T02:49:28.809Z,3.77
2022-12-06T02:51:58.075Z,4.63
2022-12-06T02:54:28.009Z,4.20
2022-12-06T02:56:55.709Z,4.43
2022-12-06T02:59:23.392Z,4.30
2022-12-06T03:01:55.046Z,4.03
2022-12-06T03:04:49.543Z,4.40
2022-12-06T03:07:30.911Z,4.07
2022-12-06T03:10:10.748Z,4.30
2022-12-06T03:12:46.803Z,3.57
2022-12-06T03:15:19.395Z,3.87
2022-12-06T03:17:51.803Z,4.33
2022-12-06T03:20:26.507Z,4.97
2022-12-06T03:22:59.126Z,4.70
2022-12-06T03:25:28.162Z,4.70
2022-12-06T03:27:58.433Z,4.13
2022-12-06T03:30:26.157Z,4.00
2022-12-06T03:32:54.071Z,4.23
2022-12-06T03:35:27.945Z,4.10
2022-12-06T03:38:00.062Z,4.23
2022-12-06T03:40:30.395Z,4.00
2022-12-06T03:42:58.888Z,3.60
2022-12-06T03:45:33.916Z,3.90
2022-12-06T03:48:05.768Z,3.90
2022-12-06T03:50:39.244Z,4.00
2022-12-06T03:53:07.189Z,4.37
2022-12-06T03:55:34.892Z,3.80
2022-12-06T03:58:02.555Z,3.63
2022-12-06T04:00:30.242Z,4.13
2022-12-06T04:02:57.906Z,3.93
2022-12-06T04:05:25.570Z,4.03
2022-12-06T04:07:54.708Z,3.57
2022-12-06T04:10:22.887Z,4.30
2022-12-06T04:13:02.807Z,3.63
2022-12-06T04:15:33.395Z,4.43
2022-12-06T04:18:13.973Z,3.60
2022-12-06T04:21:02.055Z,4.17
2022-12-06T04:23:35.249Z,5.07
2022-12-06T04:26:04.000Z,4.40
2022-12-06T04:28:49.437Z,4.30
2022-12-06T04:31:34.807Z,4.70
2022-12-06T04:34:20.408Z,4.83
2022-12-06T04:37:06.288Z,5.00
2022-12-06T04:39:36.099Z,4.67
2022-12-06T04:42:22.206Z,5.60
2022-12-06T04:44:49.845Z,5.53
2022-12-06T04:47:17.893Z,4.97
2022-12-06T04:49:45.636Z,5.70
2022-12-06T04:52:13.665Z,6.47
2022-12-06T04:54:43.217Z,5.80
2022-12-06T04:57:12.931Z,6.47
2022-12-06T04:59:42.033Z,5.90
2022-12-06T05:02:12.741Z,6.60
2022-12-06T05:04:40.437Z,6.87
2022-12-06T05:07:08.363Z,7.10
2022-12-06T05:09:36.060Z,7.00
2022-12-06T05:12:05.341Z,6.33
2022-12-06T05:14:33.001Z,7.37
2022-12-06T05:17:00.719Z,8.60
2022-12-06T05:19:28.541Z,7.67
2022-12-06T05:21:56.300Z,9.03
2022-12-06T05:24:23.967Z,7.77
2022-12-06T05:26:51.685Z,7.87
2022-12-06T05:29:20.899Z,7.53
2022-12-06T05:31:48.643Z,6.40
2022-12-06T05:34:16.423Z,7.53
2022-12-06T05:36:45.850Z,7.13
2022-12-06T05:39:13.584Z,7.37
2022-12-06T05:41:41.290Z,6.90
2022-12-06T05:44:11.490Z,7.80
2022-12-06T05:46:40.622Z,7.13
2022-12-06T05:49:08.491Z,7.60
2022-12-06T05:51:36.364Z,7.77
2022-12-06T05:54:06.479Z,8.20
2022-12-06T05:56:34.657Z,7.57
2022-12-06T05:59:03.285Z,8.00
2022-12-06T06:01:31.051Z,7.53
2022-12-06T06:04:00.101Z,7.20
2022-12-06T06:06:28.367Z,7.47
2022-12-06T06:08:56.027Z,7.73
2022-12-06T06:11:23.807Z,9.67
2022-12-06T06:13:51.594Z,9.73
2022-12-06T06:16:19.469Z,8.50
2022-12-06T06:18:47.220Z,7.57
2022-12-06T06:21:16.311Z,8.20
2022-12-06T06:23:43.977Z,8.10
2022-12-06T06:26:12.966Z,8.40
2022-12-06T06:28:40.687Z,8.73
2022-12-06T06:31:09.149Z,8.00
2022-12-06T06:33:37.174Z,7.70
2022-12-06T06:36:05.425Z,8.80
2022-12-06T06:38:34.618Z,8.37
2022-12-06T06:41:02.697Z,9.27
2022-12-06T06:43:30.615Z,8.67
2022-12-06T06:45:59.933Z,8.27
2022-12-06T06:48:30.138Z,9.47
2022-12-06T06:51:02.848Z,9.30
2022-12-06T06:53:31.377Z,9.57
2022-12-06T06:56:00.485Z,8.70
2022-12-06T06:58:28.212Z,10.63
2022-12-06T07:00:58.691Z,11.13
2022-12-06T07:03:27.816Z,11.43
2022-12-06T07:05:57.650Z,12.30
2022-12-06T07:08:25.626Z,10.67
2022-12-06T07:10:54.855Z,11.10
2022-12-06T07:13:25.529Z,11.97
2022-12-06T07:15:53.683Z,10.80
2022-12-06T07:18:22.583Z,10.50
2022-12-06T07:20:51.322Z,9.40
2022-12-06T07:23:18.977Z,10.77
2022-12-06T07:25:46.882Z,9.87
2022-12-06T07:28:14.607Z,10.17
2022-12-06T07:30:43.919Z,10.50
2022-12-06T07:33:11.929Z,10.83
2022-12-06T07:36:10.835Z,9.83
2022-12-06T07:38:27.335Z,10.50
2022-12-06T07:41:04.493Z,11.47
2022-12-06T07:43:49.894Z,11.33
2022-12-06T07:46:19.048Z,9.50
2022-12-06T07:48:46.764Z,10.03
2022-12-06T07:51:14.590Z,11.50
2022-12-06T07:53:42.902Z,12.90
2022-12-06T07:56:11.578Z,11.00
2022-12-06T07:58:39.639Z,12.17
2022-12-06T08:01:07.682Z,10.77
2022-12-06T08:03:36.753Z,10.65
2022-12-06T08:06:04.594Z,12.33
2022-12-06T08:08:32.977Z,11.37
2022-12-06T08:11:01.101Z,12.40
2022-12-06T08:13:29.146Z,12.40
2022-12-06T08:15:57.325Z,11.93
2022-12-06T08:18:25.569Z,11.73
2022-12-06T08:20:54.840Z,12.83
2022-12-06T08:23:22.693Z,12.27
2022-12-06T08:25:57.821Z,12.80
2022-12-06T08:28:25.591Z,12.20
2022-12-06T08:30:57.010Z,13.57
2022-12-06T08:33:28.200Z,10.33
2022-12-06T08:35:57.222Z,12.07
2022-12-06T08:38:24.934Z,11.07
2022-12-06T08:40:52.726Z,9.93
2022-12-06T08:43:20.419Z,10.57
2022-12-06T08:45:51.595Z,11.30
2022-12-06T08:48:19.882Z,11.40
2022-12-06T08:50:47.576Z,11.53
2022-12-06T08:53:16.651Z,12.23
2022-12-06T08:56:00.345Z,12.00
2022-12-06T08:58:29.923Z,13.03
2022-12-06T09:00:57.646Z,12.47
2022-12-06T09:03:26.510Z,11.70
2022-12-06T09:05:54.325Z,12.30
2022-12-06T09:08:23.431Z,12.20
2022-12-06T09:10:51.282Z,12.77
2022-12-06T09:13:19.067Z,11.03
2022-12-06T09:15:46.845Z,11.27
2022-12-06T09:18:14.610Z,12.77
2022-12-06T09:20:42.858Z,12.00
2022-12-06T09:23:10.894Z,13.13
2022-12-06T09:25:42.370Z,13.23
2022-12-06T09:28:11.363Z,13.73
2022-12-06T09:30:39.293Z,13.10
2022-12-06T09:33:07.134Z,12.90
2022-12-06T09:35:36.463Z,12.63
2022-12-06T09:38:04.879Z,12.53
2022-12-06T09:40:39.789Z,13.53
2022-12-06T09:43:27.524Z,12.47
2022-12-06T09:46:17.954Z,12.00
2022-12-06T09:49:06.905Z,15.03
2022-12-06T09:51:49.693Z,12.87
2022-12-06T09:54:30.692Z,12.40
2022-12-06T09:57:02.898Z,12.33
2022-12-06T09:59:40.822Z,15.07
2022-12-06T10:02:32.004Z,13.33
2022-12-06T10:05:31.065Z,14.17
2022-12-06T10:08:08.703Z,13.20
2022-12-06T10:10:49.265Z,14.67
2022-12-06T10:13:28.025Z,13.90
2022-12-06T10:16:07.907Z,15.40
2022-12-06T10:18:49.365Z,13.00
2022-12-06T10:21:23.871Z,13.27
2022-12-06T10:24:02.283Z,13.30
2022-12-06T10:26:36.201Z,14.50
2022-12-06T10:29:20.318Z,12.87
2022-12-06T10:31:57.626Z,13.60
2022-12-06T10:34:36.754Z,15.00
2022-12-06T10:37:18.036Z,14.17
2022-12-06T10:39:52.212Z,14.87
2022-12-06T10:42:30.704Z,16.30
2022-12-06T10:45:25.079Z,14.97
2022-12-06T10:47:56.924Z,15.57
2022-12-06T10:50:28.593Z,14.37
2022-12-06T10:53:02.985Z,12.47
2022-12-06T10:55:35.880Z,15.10
2022-12-06T10:58:12.044Z,13.23
2022-12-06T11:00:46.485Z,13.40
2022-12-06T11:03:20.322Z,10.10
2022-12-06T11:05:50.296Z,11.77
2022-12-06T11:08:22.659Z,13.17
2022-12-06T11:10:52.396Z,11.53
2022-12-06T11:13:23.433Z,10.70
2022-12-06T11:15:56.212Z,10.10
2022-12-06T11:18:29.221Z,9.77
2022-12-06T11:21:03.637Z,9.00
2022-12-06T11:23:39.310Z,9.13
2022-12-06T11:26:15.122Z,8.93
2022-12-06T11:28:45.812Z,7.63
2022-12-06T11:31:21.107Z,6.40
2022-12-06T11:33:50.335Z,6.63
2022-12-06T11:36:21.239Z,7.87
2022-12-06T11:38:49.007Z,6.23
2022-12-06T11:41:22.349Z,5.50
2022-12-06T11:43:50.715Z,6.13
2022-12-06T11:46:18.750Z,5.07
2022-12-06T11:48:57.788Z,6.17
2022-12-06T11:51:27.381Z,4.70
2022-12-06T11:54:00.463Z,5.10
2022-12-06T11:56:31.010Z,4.67
2022-12-06T11:59:16.828Z,5.30
2022-12-06T12:01:47.092Z,5.23
2022-12-06T12:04:40.324Z,5.97
2022-12-06T12:07:16.636Z,5.37
2022-12-06T12:09:52.979Z,6.30
2022-12-06T12:12:24.998Z,6.47
2022-12-06T12:14:58.778Z,6.30
2022-12-06T12:17:33.536Z,6.57
2022-12-06T12:20:14.910Z,6.77
2022-12-06T12:22:44.996Z,7.10
2022-12-06T12:25:26.538Z,7.13
2022-12-06T12:27:58.426Z,8.13
2022-12-06T12:30:33.161Z,7.17
2022-12-06T12:33:28.660Z,7.23
2022-12-06T12:36:17.656Z,7.47
2022-12-06T12:39:01.126Z,6.80
2022-12-06T12:41:34.979Z,6.37
2022-12-06T12:44:37.629Z,7.57
2022-12-06T12:47:23.772Z,7.13
2022-12-06T12:50:08.570Z,8.30
2022-12-06T12:52:41.453Z,6.70
2022-12-06T12:55:28.071Z,7.60
2022-12-06T12:57:57.695Z,7.30
2022-12-06T13:00:27.284Z,6.97
2022-12-06T13:04:07.309Z,7.47
2022-12-06T13:07:06.216Z,7.30
2022-12-06T13:09:54.309Z,7.07
2022-12-06T13:12:33.978Z,6.40
2022-12-06T13:15:18.214Z,7.43
2022-12-06T13:17:52.874Z,8.47
2022-12-06T13:20:27.511Z,8.53
2022-12-06T13:22:58.790Z,7.40
2022-12-06T13:25:28.259Z,6.70
2022-12-06T13:28:05.037Z,7.63
2022-12-06T13:30:36.707Z,7.13
2022-12-06T13:33:08.287Z,6.53
2022-12-06T13:35:40.088Z,6.40
2022-12-06T13:38:26.964Z,6.47
2022-12-06T13:40:58.602Z,7.37
2022-12-06T13:43:51.365Z,7.50
2022-12-06T13:46:33.393Z,7.60
2022-12-06T13:49:03.589Z,7.30
2022-12-06T13:51:48.081Z,7.83
2022-12-06T13:54:39.553Z,9.00
2022-12-06T13:57:29.860Z,8.90
2022-12-06T13:59:58.474Z,9.47
2022-12-06T14:02:57.090Z,9.77
2022-12-06T14:06:07.535Z,9.77
2022-12-06T14:08:41.853Z,10.13
2022-12-06T14:11:22.395Z,10.20
2022-12-06T14:14:02.070Z,11.07
2022-12-06T14:16:35.506Z,10.60
2022-12-06T14:19:13.246Z,10.27
2022-12-06T14:21:43.478Z,10.23
2022-12-06T14:24:27.245Z,10.00
2022-12-06T14:26:55.200Z,9.20
2022-12-06T14:29:25.692Z,9.93
2022-12-06T14:31:56.729Z,9.73
2022-12-06T14:34:29.264Z,9.83
2022-12-06T14:37:03.038Z,10.13
2022-12-06T14:39:33.674Z,9.70
2022-12-06T14:42:21.805Z,10.07
2022-12-06T14:44:57.380Z,9.43
2022-12-06T14:47:30.328Z,9.83
2022-12-06T14:50:28.230Z,10.40
2022-12-06T14:52:59.565Z,9.40
2022-12-06T14:55:29.144Z,9.47
2022-12-06T14:57:59.584Z,10.53
2022-12-06T15:00:35.853Z,9.70
2022-12-06T15:03:23.757Z,10.50
2022-12-06T15:05:57.556Z,10.87
2022-12-06T15:08:34.932Z,10.93
2022-12-06T15:11:05.211Z,11.00
2022-12-06T15:13:32.574Z,10.70
2022-12-06T15:16:07.920Z,10.53
2022-12-06T15:18:39.406Z,11.07
2022-12-06T15:21:37.581Z,10.07
2022-12-06T15:32:12.888Z,10.03
2022-12-06T15:44:54.331Z,7.73
2022-12-06T15:51:20.802Z,8.47
2022-12-06T15:53:50.412Z,7.13
2022-12-06T15:56:22.982Z,7.33
2022-12-06T15:58:52.952Z,7.70
2022-12-06T16:01:23.316Z,8.00
2022-12-06T16:03:53.363Z,8.30
2022-12-06T16:06:24.584Z,8.20
2022-12-06T16:09:10.929Z,7.10
2022-12-06T16:11:53.250Z,8.07
2022-12-06T16:14:23.977Z,7.67
2022-12-06T16:16:53.059Z,7.83
2022-12-06T16:19:24.976Z,8.40
2022-12-06T16:22:01.809Z,8.00
2022-12-06T16:24:28.675Z,7.13
2022-12-06T16:26:56.580Z,7.83
2022-12-06T16:29:25.053Z,8.00
2022-12-06T16:31:56.708Z,7.63
2022-12-06T16:34:42.524Z,8.93
2022-12-06T16:37:13.122Z,16.60
2022-12-06T16:39:41.120Z,11.50
2022-12-06T16:42:11.183Z,9.67
2022-12-06T16:44:53.480Z,9.63
2022-12-06T16:50:07.348Z,9.67
2022-12-06T16:52:41.630Z,9.77
2022-12-06T16:55:11.909Z,9.87
2022-12-06T16:57:39.954Z,9.40
2022-12-06T17:00:09.124Z,9.50
2022-12-06T17:02:37.062Z,9.60
2022-12-06T17:05:07.164Z,9.97
2022-12-06T17:07:35.882Z,10.03
2022-12-06T17:10:06.327Z,9.07
2022-12-06T17:12:34.160Z,10.10
2022-12-06T17:18:09.720Z,8.20
2022-12-06T17:20:40.089Z,8.93
2022-12-06T17:23:08.034Z,7.63
2022-12-06T17:25:40.232Z,7.70
2022-12-06T17:28:08.023Z,8.40
2022-12-06T17:30:35.858Z,6.73
2022-12-06T17:33:03.716Z,7.30
2022-12-06T17:35:32.157Z,7.07
2022-12-06T17:38:00.456Z,7.00
2022-12-06T17:40:28.251Z,6.33
2022-12-06T17:43:00.364Z,6.53
2022-12-06T17:45:28.801Z,6.47
2022-12-06T17:47:56.861Z,6.13
2022-12-06T17:50:32.738Z,6.37
2022-12-06T17:53:00.541Z,6.67
2022-12-06T17:55:28.313Z,6.60
2022-12-06T17:57:57.493Z,7.87
2022-12-06T18:00:28.489Z,7.33
2022-12-06T18:03:05.950Z,8.00
2022-12-06T18:05:34.445Z,7.80
2022-12-06T18:08:02.318Z,8.03
2022-12-06T18:10:30.182Z,8.17
2022-12-06T18:13:02.765Z,8.20
2022-12-06T18:15:40.767Z,8.37
2022-12-06T18:18:08.667Z,8.27
2022-12-06T18:20:36.480Z,8.50
2022-12-06T18:23:04.379Z,8.27
2022-12-06T18:25:32.195Z,9.20
2022-12-06T18:28:01.294Z,9.73
2022-12-06T18:30:29.078Z,9.03
2022-12-06T18:32:56.914Z,9.03
2022-12-06T18:35:24.677Z,8.33
2022-12-06T18:37:52.615Z,8.13
2022-12-06T18:40:20.503Z,8.27
2022-12-06T18:42:48.341Z,8.93
2022-12-06T18:45:17.979Z,9.67
2022-12-06T18:47:45.780Z,9.73
2022-12-06T18:50:13.544Z,9.27
2022-12-06T18:52:41.881Z,10.00
2022-12-06T18:55:10.078Z,9.70
2022-12-06T18:57:38.406Z,9.30
2022-12-06T19:00:07.648Z,10.00
2022-12-06T19:02:36.945Z,9.73
2022-12-06T19:05:05.488Z,10.50
2022-12-06T19:07:33.374Z,9.83
2022-12-06T19:10:01.548Z,9.13
2022-12-06T19:12:29.463Z,9.43
2022-12-06T19:14:57.302Z,10.80
2022-12-06T19:17:25.066Z,9.23
2022-12-06T19:19:54.338Z,10.60
2022-12-06T19:22:22.277Z,11.00
2022-12-06T19:24:50.423Z,10.57
2022-12-06T19:27:20.726Z,10.33
2022-12-06T19:29:48.916Z,10.33
2022-12-06T19:32:16.915Z,10.60
2022-12-06T19:34:44.704Z,10.83
2022-12-06T19:37:14.020Z,11.50
2022-12-06T19:39:41.966Z,10.53
2022-12-06T19:42:27.306Z,10.37
2022-12-06T19:44:55.255Z,9.93
2022-12-06T19:47:23.698Z,10.23
2022-12-06T19:49:51.930Z,9.53
2022-12-06T19:52:29.304Z,9.63
2022-12-06T19:54:58.695Z,9.57
2022-12-06T19:57:26.985Z,9.43
2022-12-06T19:59:56.511Z,9.53
2022-12-06T20:02:24.441Z,12.73
2022-12-06T20:04:54.682Z,11.40
2022-12-06T20:07:24.007Z,10.97
2022-12-06T20:09:52.650Z,10.47
2022-12-06T20:12:27.501Z,11.43
2022-12-06T20:14:55.428Z,12.67
2022-12-06T20:17:24.651Z,12.77
2022-12-06T20:19:55.075Z,11.97
2022-12-06T20:22:24.426Z,11.07
2022-12-06T20:24:52.599Z,12.07
2022-12-06T20:27:41.784Z,13.90
2022-12-06T20:30:10.782Z,11.83
2022-12-06T20:32:38.598Z,11.67
2022-12-06T20:35:06.662Z,10.73
2022-12-06T20:37:36.576Z,11.07
2022-12-06T20:40:04.864Z,9.90
2022-12-06T20:42:33.360Z,10.37
2022-12-06T20:45:01.863Z,10.33
2022-12-06T20:47:29.748Z,11.23
2022-12-06T20:49:57.575Z,10.30
2022-12-06T20:52:25.742Z,10.20
2022-12-06T20:54:58.829Z,10.03
2022-12-06T20:57:27.144Z,9.87
2022-12-06T20:59:54.903Z,8.70
2022-12-06T21:02:22.725Z,9.53
2022-12-06T21:04:51.460Z,9.80
2022-12-06T21:07:19.493Z,10.30
2022-12-06T21:09:47.273Z,9.33
2022-12-06T21:12:19.589Z,9.30
2022-12-06T21:14:47.576Z,9.57
2022-12-06T21:17:15.426Z,11.23
2022-12-06T21:19:43.668Z,11.60
2022-12-06T21:22:11.522Z,11.33
2022-12-06T21:24:39.513Z,10.33
2022-12-06T21:27:07.674Z,13.97
2022-12-06T21:29:38.902Z,10.67
2022-12-06T21:32:06.963Z,10.43
2022-12-06T21:34:35.013Z,11.27
2022-12-06T21:37:02.778Z,9.63
2022-12-06T21:39:30.717Z,9.40
2022-12-06T21:41:58.639Z,9.80
2022-12-06T21:44:26.489Z,10.10
2022-12-06T21:46:55.793Z,10.50
2022-12-06T21:49:23.756Z,11.77
2022-12-06T21:51:56.663Z,12.23
2022-12-06T21:54:28.292Z,11.37
2022-12-06T21:56:57.404Z,12.63
2022-12-06T21:59:25.224Z,14.93
2022-12-06T22:01:53.605Z,16.03
2022-12-06T22:04:22.797Z,16.37
2022-12-06T22:06:50.642Z,15.43
2022-12-06T22:09:18.415Z,17.00
2022-12-06T22:11:46.410Z,15.63
2022-12-06T22:14:14.332Z,16.47
2022-12-06T22:16:42.200Z,14.93
2022-12-06T22:19:10.017Z,13.93
2022-12-06T22:21:39.695Z,15.70
2022-12-06T22:24:08.089Z,16.53
2022-12-06T22:26:35.916Z,16.67
2022-12-06T22:29:03.803Z,14.97
2022-12-06T22:31:34.088Z,17.27
2022-12-06T22:34:02.788Z,16.57
2022-12-06T22:36:31.551Z,15.63
2022-12-06T22:39:02.709Z,18.23
2022-12-06T22:41:31.604Z,15.87
2022-12-06T22:44:01.444Z,15.77
2022-12-06T22:46:30.701Z,16.67
2022-12-06T22:48:59.776Z,16.07
2022-12-06T22:51:29.158Z,15.20
2022-12-06T22:53:58.651Z,16.17
2022-12-06T22:56:28.905Z,16.23
2022-12-06T22:58:58.302Z,17.17
2022-12-06T23:01:28.185Z,14.77
2022-12-06T23:03:56.366Z,14.73
2022-12-06T23:06:26.195Z,14.33
2022-12-06T23:08:55.173Z,16.10
2022-12-06T23:11:24.880Z,15.47
2022-12-06T23:13:55.179Z,16.40
2022-12-06T23:16:25.309Z,16.50
2022-12-06T23:18:53.717Z,16.97
2022-12-06T23:21:25.915Z,15.97
2022-12-06T23:23:55.889Z,14.63
2022-12-06T23:26:25.725Z,16.33
2022-12-06T23:28:55.395Z,15.73
2022-12-06T23:31:25.182Z,15.97
2022-12-06T23:33:58.549Z,16.00
2022-12-06T23:36:28.939Z,14.70
2022-12-06T23:38:57.055Z,16.47
2022-12-06T23:41:26.648Z,16.97
2022-12-06T23:43:57.595Z,17.23
2022-12-06T23:46:27.207Z,16.43
2022-12-06T23:48:55.721Z,16.97
2022-12-06T23:51:25.356Z,17.23
2022-12-06T23:53:56.847Z,17.83
2022-12-06T23:56:27.803Z,14.80
2022-12-06T23:58:57.920Z,16.50
